This is the latest recevied weather packets stored in our database for station/object SQ9PDE-13. If no packets are shown the sender has not sent any weather packets the latest 10 day(s).
| Time | Temp. | Humidity | Pressure | Rain* | Wind** | Luminosity | Snow |
|---|---|---|---|---|---|---|---|
| 1787997221 | 23.33° C | 67% | 1016.6 hPa | - | - | - | - |
| 1787997138 | 23.33° C | 67% | 1016.6 hPa | - | - | - | - |
| 1787996838 | 22.78° C | 68% | 1016.8 hPa | - | - | - | - |
| 1787996537 | 22.22° C | 70% | 1016.9 hPa | - | - | - | - |
| 1787996237 | 22.78° C | 69% | 1016.8 hPa | - | - | - | - |
| 1787995936 | 22.78° C | 70% | 1016.7 hPa | - | - | - | - |
| 1787995636 | 21.67° C | 73% | 1016.8 hPa | - | - | - | - |
| 1787995429 | 23.89° C | 69% | 1016.5 hPa | - | - | - | - |
| 1787995335 | 23.89° C | 69% | 1016.5 hPa | - | - | - | - |
| 1787995035 | 20.56° C | 76% | 1016.8 hPa | - | - | - | - |
| 1787994734 | 21.67° C | 73% | 1016.7 hPa | - | - | - | - |
| 1787994434 | 22.22° C | 70% | 1016.6 hPa | - | - | - | - |
| 1787994133 | 23.89° C | 69% | 1016.4 hPa | - | - | - | - |
| 1787993833 | 20.56° C | 82% | 1017.1 hPa | - | - | - | - |
| 1787993532 | 18.33° C | 86% | 1017.4 hPa | - | - | - | - |
| 1787993339 | 17.22° C | 89% | 1017.4 hPa | - | - | - | - |
| 1787993232 | 17.22° C | 89% | 1017.4 hPa | - | - | - | - |
| 1787992931 | 16.67° C | 91% | 1017.5 hPa | - | - | - | - |
| 1787992631 | 16.67° C | 91% | 1017.3 hPa | - | - | - | - |
| 1787992330 | 16.67° C | 91% | 1017.3 hPa | - | - | - | - |
| 1787992046 | 17.22° C | 91% | 1017.2 hPa | - | - | - | - |
| 1787991745 | 17.22° C | 91% | 1017 hPa | - | - | - | - |
| 1787991445 | 16.67° C | 91% | 1017.1 hPa | - | - | - | - |
| 1787991144 | 16.67° C | 92% | 1017.1 hPa | - | - | - | - |
| 1787990844 | 17.22° C | 92% | 1016.9 hPa | - | - | - | - |
* Rain since midnight (hover to see other rain measurements)
** Current wind speed in m/s (hover to see current wind gust speed)